Time;durP1;ratioP1;P1;durP2;ratioP2;P2;SDS_P1;SDS_P2;PMS_P1;PMS_P2;Temp;Humidity;BMP_temperature;BMP_pressure;BME280_temperature;BME280_humidity;BME280_pressure;Samples;Min_cycle;Max_cycle;Signal;HPM_P1;HPM_P2
2024/04/13 00:00:45;;;;;;;3.25;1.58;;;12.80;99.90;;;;;;5216286;27;20066;-85
2024/04/13 00:03:51;;;;;;;3.30;1.38;;;12.80;99.90;;;;;;5194728;27;20382;-85
2024/04/13 00:06:43;;;;;;;3.10;1.58;;;12.70;99.90;;;;;;5167479;27;20000;-86
2024/04/13 00:10:39;;;;;;;3.78;2.17;;;12.80;99.90;;;;;;5148699;27;20015;-86
2024/04/13 00:14:28;;;;;;;5.43;1.70;;;12.70;99.90;;;;;;5166574;27;20054;-86
2024/04/13 00:21:32;;;;;;;3.47;1.52;;;12.70;99.90;;;;;;5145953;27;20487;-87
2024/04/13 00:25:23;;;;;;;2.42;1.55;;;12.60;99.90;;;;;;5059977;28;20029;-85
2024/04/13 00:28:40;;;;;;;2.75;1.70;;;12.60;99.90;;;;;;5072555;28;20013;-86
2024/04/13 00:34:16;;;;;;;4.53;2.25;;;12.50;99.90;;;;;;5167868;27;20142;-86
2024/04/13 00:36:49;;;;;;;5.78;2.00;;;12.50;99.90;;;;;;5236405;27;20469;-86
2024/04/13 00:39:28;;;;;;;4.57;1.88;;;12.50;99.90;;;;;;5236236;27;20581;-86
2024/04/13 00:42:14;;;;;;;2.70;1.60;;;12.50;99.90;;;;;;5212468;27;20023;-85
2024/04/13 00:45:19;;;;;;;3.90;2.10;;;12.60;99.90;;;;;;5274070;26;20033;-86
2024/04/13 00:48:30;;;;;;;4.22;2.00;;;12.40;99.90;;;;;;5059138;27;20022;-86
2024/04/13 00:51:23;;;;;;;2.67;1.80;;;12.50;99.90;;;;;;5331860;26;20005;-85
2024/04/13 00:54:23;;;;;;;1.60;1.35;;;12.40;99.90;;;;;;5230649;26;20015;-85
2024/04/13 00:57:20;;;;;;;3.58;1.73;;;12.30;99.90;;;;;;5344488;26;20012;-85
2024/04/13 01:00:27;;;;;;;5.72;2.15;;;12.40;99.90;;;;;;5309356;26;20020;-86
2024/04/13 01:03:24;;;;;;;7.05;2.65;;;12.30;99.90;;;;;;5333274;26;20005;-86
2024/04/13 01:06:42;;;;;;;3.28;2.05;;;12.30;99.90;;;;;;5310151;26;20802;-86
2024/04/13 01:10:14;;;;;;;4.70;2.13;;;12.40;99.90;;;;;;5326809;26;20009;-86
2024/04/13 01:13:40;;;;;;;3.85;1.85;;;12.50;99.90;;;;;;5324152;26;20066;-86
2024/04/13 01:16:43;;;;;;;3.47;1.90;;;12.20;99.90;;;;;;5236507;27;20006;-86
2024/04/13 01:19:31;;;;;;;3.17;1.63;;;12.30;99.90;;;;;;5202865;27;20007;-85
2024/04/13 01:23:06;;;;;;;4.03;1.75;;;12.20;99.90;;;;;;5080399;27;20526;-86
2024/04/13 01:26:04;;;;;;;4.22;2.33;;;12.20;99.90;;;;;;5129291;27;20037;-85
2024/04/13 01:29:49;;;;;;;3.25;1.83;;;11.40;99.90;;;;;;5219281;27;20077;-85
2024/04/13 01:33:01;;;;;;;2.78;1.95;;;12.20;99.90;;;;;;5237906;27;20602;-85
2024/04/13 01:40:31;;;;;;;3.42;2.10;;;12.10;99.90;;;;;;5124398;27;22549;-85
2024/04/13 01:43:18;;;;;;;6.63;2.38;;;12.00;99.90;;;;;;5052234;27;20633;-85
2024/04/13 01:45:45;;;;;;;3.08;1.60;;;12.10;99.90;;;;;;5097863;27;20006;-85
2024/04/13 01:48:14;;;;;;;3.95;1.77;;;12.10;99.90;;;;;;5063429;27;20002;-85
2024/04/13 01:51:39;;;;;;;3.83;1.60;;;11.90;99.90;;;;;;5088986;27;20016;-85
2024/04/13 01:59:02;;;;;;;3.70;2.45;;;11.80;99.90;;;;;;5044933;28;20006;-85
2024/04/13 02:02:37;;;;;;;3.33;1.70;;;12.00;99.90;;;;;;5014896;28;20010;-85
2024/04/13 02:06:48;;;;;;;2.95;1.33;;;11.90;99.90;;;;;;5088590;27;20016;-86
2024/04/13 02:14:13;;;;;;;2.28;1.42;;;11.90;99.90;;;;;;4781922;29;20013;-85
2024/04/13 02:16:46;;;;;;;4.95;1.77;;;11.90;99.90;;;;;;5029195;27;20449;-86
2024/04/13 02:19:39;;;;;;;3.30;1.27;;;11.90;99.90;;;;;;5100735;27;20023;-86
2024/04/13 02:25:51;;;;;;;4.95;1.52;;;11.90;99.90;;;;;;5282192;27;20002;-85
2024/04/13 02:28:34;;;;;;;3.92;1.40;;;11.90;99.90;;;;;;5267856;27;20053;-85
2024/04/13 02:31:17;;;;;;;3.42;1.40;;;11.90;99.90;;;;;;5292404;26;20014;-85
2024/04/13 02:33:45;;;;;;;6.03;1.20;;;11.90;99.90;;;;;;5298970;26;20391;-85
2024/04/13 02:36:29;;;;;;;3.17;0.80;;;11.90;99.90;;;;;;5251076;26;20451;-85
2024/04/13 11:56:59;;;;;;;;;;;;;;;;;;;;;
2024/04/13 12:04:36;;;;;;;;;;;;;;;;;;;;;
2024/04/13 14:10:03;;;;;;;6.97;4.65;;;21.80;99.90;;;;;;5605012;21;20285238;-83
2024/04/13 14:31:08;;;;;;;6.03;5.35;;;22.20;99.90;;;;;;6374593;22;20734;-83
2024/04/13 14:33:44;;;;;;;7.20;4.90;;;22.50;99.90;;;;;;6324267;22;20039;-83
2024/04/13 14:36:10;;;;;;;6.38;5.10;;;22.20;99.90;;;;;;6370660;22;20007;-83
2024/04/13 14:38:39;;;;;;;5.90;4.50;;;22.50;99.90;;;;;;6329015;22;20017;-82
2024/04/13 14:41:08;;;;;;;8.05;5.68;;;22.30;99.90;;;;;;6327292;22;20003;-82
2024/04/13 14:43:34;;;;;;;7.03;5.15;;;22.40;99.90;;;;;;6328794;22;20379;-82
2024/04/13 14:46:02;;;;;;;10.82;5.85;;;22.10;99.90;;;;;;6371749;22;20018;-83
2024/04/13 14:48:31;;;;;;;8.95;5.45;;;22.20;99.90;;;;;;6328489;22;20003;-84
2024/04/13 14:51:05;;;;;;;7.65;5.32;;;22.20;99.90;;;;;;6329293;22;20486;-83
2024/04/13 14:53:31;;;;;;;19.95;8.02;;;22.20;99.90;;;;;;6375859;22;20007;-82
2024/04/13 14:55:57;;;;;;;7.22;5.75;;;22.40;99.90;;;;;;6374147;22;20430;-82
2024/04/13 14:58:25;;;;;;;13.27;7.13;;;22.10;99.90;;;;;;6335239;22;20449;-81
2024/04/13 15:01:01;;;;;;;8.93;5.57;;;22.10;99.90;;;;;;6332936;22;20018;-82
2024/04/13 15:04:22;;;;;;;5.63;4.95;;;22.10;99.90;;;;;;6376013;22;20018;-81
2024/04/13 15:07:07;;;;;;;6.50;5.28;;;22.00;99.90;;;;;;6378012;22;20078;-81
2024/04/13 15:09:33;;;;;;;9.85;6.45;;;21.80;99.90;;;;;;6375919;22;20015;-80
2024/04/13 15:11:58;;;;;;;8.13;5.72;;;21.70;99.90;;;;;;6375691;22;20031;-80
2024/04/13 15:52:36;;;;;;;8.25;5.97;;;21.80;99.90;;;;;;6380497;22;20047;-84
2024/04/13 15:55:44;;;;;;;6.85;5.80;;;21.70;99.90;;;;;;6309600;22;20047;-85
2024/04/13 15:58:42;;;;;;;6.97;5.55;;;21.50;99.90;;;;;;6324194;22;20013;-85
2024/04/13 16:10:22;;;;;;;6.45;5.53;;;21.30;99.90;;;;;;6186268;23;20012;-86
2024/04/13 16:30:14;;;;;;;;;;;20.80;99.90;;;;;;6331413;22;20003;-88
2024/04/13 16:41:46;;;;;;;5.32;4.53;;;20.70;99.90;;;;;;6526144;22;20000;-88
2024/04/13 16:45:45;;;;;;;6.17;4.70;;;21.00;99.90;;;;;;6420912;22;20006;-85
2024/04/13 16:48:53;;;;;;;7.28;4.13;;;20.50;99.90;;;;;;6333950;22;20278;-84
2024/04/13 16:51:22;;;;;;;6.43;4.57;;;20.50;99.90;;;;;;6416615;22;20007;-84
2024/04/13 16:54:31;;;;;;;7.28;5.13;;;20.40;99.90;;;;;;6445198;22;19998;-85
2024/04/13 17:01:29;;;;;;;8.98;4.55;;;20.40;99.90;;;;;;6526813;22;20016;-84
2024/04/13 17:04:19;;;;;;;;;;;20.30;99.90;;;;;;6478323;22;20047;-85
2024/04/13 17:07:26;;;;;;;4.03;3.20;;;20.30;99.90;;;;;;6436123;22;20325;-85
2024/04/13 17:15:24;;;;;;;2.78;2.50;;;20.20;99.90;;;;;;6371382;22;20014;-86
2024/04/13 17:18:52;;;;;;;6.07;3.20;;;20.20;99.90;;;;;;6176991;23;20017;-88
2024/04/13 17:21:18;;;;;;;3.92;2.78;;;20.10;99.90;;;;;;6398690;22;20016;-85
2024/04/13 17:23:47;;;;;;;4.32;2.50;;;20.00;99.90;;;;;;6523645;22;20424;-85
2024/04/13 17:26:12;;;;;;;5.25;3.10;;;19.90;99.90;;;;;;6479058;22;20001;-85
2024/04/13 17:28:38;;;;;;;4.22;2.85;;;20.00;99.90;;;;;;6522164;22;20424;-87
2024/04/13 17:31:04;;;;;;;6.65;3.25;;;19.90;99.90;;;;;;6520893;22;20005;-84
2024/04/13 17:33:31;;;;;;;4.50;3.05;;;19.90;99.90;;;;;;6476545;22;20440;-85
2024/04/13 17:35:57;;;;;;;7.45;2.40;;;19.80;99.90;;;;;;6521211;22;20012;-85
2024/04/13 17:38:23;;;;;;;2.97;2.00;;;19.80;99.90;;;;;;6522557;22;20005;-85
2024/04/13 17:40:59;;;;;;;4.35;2.50;;;19.70;99.90;;;;;;6477471;22;20012;-85
2024/04/13 17:43:24;;;;;;;4.75;2.42;;;19.60;99.90;;;;;;6477886;22;20012;-85
2024/04/13 17:45:50;;;;;;;3.70;2.58;;;19.60;99.90;;;;;;6522272;22;20005;-85
2024/04/13 17:48:17;;;;;;;5.13;2.72;;;19.50;99.90;;;;;;6477704;22;19998;-85
2024/04/13 17:50:43;;;;;;;5.20;2.50;;;19.60;99.90;;;;;;6521418;22;20019;-84
2024/04/13 17:53:08;;;;;;;10.55;3.15;;;19.50;99.90;;;;;;6521456;22;20053;-85
2024/04/13 17:55:34;;;;;;;5.03;2.30;;;19.40;99.90;;;;;;6522171;22;20013;-86
2024/04/13 17:58:00;;;;;;;3.90;2.95;;;19.40;99.90;;;;;;6520531;22;20005;-85
2024/04/13 18:00:26;;;;;;;5.57;2.60;;;19.30;99.90;;;;;;6520363;22;20011;-84
2024/04/13 18:02:52;;;;;;;6.40;2.20;;;19.20;99.90;;;;;;6523118;22;20045;-85
2024/04/13 18:05:17;;;;;;;6.45;2.45;;;19.20;99.90;;;;;;6522721;22;20424;-84
2024/04/13 18:07:46;;;;;;;10.15;2.92;;;19.10;99.90;;;;;;6520855;22;20016;-84
2024/04/13 18:10:11;;;;;;;4.30;2.92;;;19.00;99.90;;;;;;6520457;22;20013;-85
2024/04/13 18:12:38;;;;;;;5.05;2.30;;;18.90;99.90;;;;;;6521084;22;20012;-84
2024/04/13 18:15:04;;;;;;;5.00;2.65;;;19.00;99.90;;;;;;6474813;22;20008;-85
2024/04/13 18:17:29;;;;;;;6.43;2.40;;;18.70;99.90;;;;;;6520326;22;20029;-85
2024/04/13 18:19:56;;;;;;;9.10;2.40;;;18.60;99.90;;;;;;6474508;22;20098;-84
2024/04/13 18:22:24;;;;;;;6.90;2.28;;;18.50;99.90;;;;;;6475390;22;20005;-85
2024/04/13 18:24:52;;;;;;;5.38;2.40;;;18.50;99.90;;;;;;6520692;22;20029;-87
2024/04/13 18:27:18;;;;;;;5.82;2.33;;;18.40;99.90;;;;;;6477975;22;20052;-87
2024/04/13 18:29:44;;;;;;;4.35;2.03;;;18.30;99.90;;;;;;6522868;22;20001;-85
2024/04/13 18:32:10;;;;;;;5.75;2.50;;;18.40;99.90;;;;;;6478623;22;20001;-85
2024/04/13 18:34:36;;;;;;;6.93;2.45;;;18.50;99.90;;;;;;6522355;22;20016;-85
2024/04/13 18:37:02;;;;;;;4.43;2.17;;;18.00;99.90;;;;;;6523430;22;20005;-87
2024/04/13 18:39:27;;;;;;;4.97;2.25;;;18.10;99.90;;;;;;6523526;22;20600;-87
2024/04/13 18:41:53;;;;;;;5.40;2.80;;;17.90;99.90;;;;;;6478956;22;20012;-86
2024/04/13 18:44:19;;;;;;;6.18;2.47;;;18.10;99.90;;;;;;6524095;22;20001;-86
2024/04/13 18:46:45;;;;;;;4.68;2.20;;;17.80;99.90;;;;;;6478076;22;20005;-85
2024/04/13 18:49:11;;;;;;;6.20;1.60;;;17.70;99.90;;;;;;6523075;22;20375;-86
2024/04/13 18:51:37;;;;;;;3.60;1.70;;;17.70;99.90;;;;;;6477608;22;19997;-85
2024/04/13 18:54:03;;;;;;;4.60;1.50;;;17.50;99.90;;;;;;6521622;22;20017;-84
2024/04/13 18:56:30;;;;;;;3.92;1.42;;;17.50;99.90;;;;;;6477491;22;20420;-85
2024/04/13 18:58:57;;;;;;;4.35;1.60;;;17.40;99.90;;;;;;6478445;22;20023;-86
2024/04/13 19:01:22;;;;;;;9.32;1.67;;;17.30;99.90;;;;;;6522653;22;20016;-86
2024/04/13 19:03:51;;;;;;;4.05;1.27;;;17.30;99.90;;;;;;6522345;22;20075;-84
2024/04/13 19:06:18;;;;;;;3.42;1.17;;;17.20;99.90;;;;;;6477589;22;20458;-85
2024/04/13 19:08:45;;;;;;;4.78;1.10;;;17.30;99.90;;;;;;6478341;22;20033;-85
2024/04/13 19:11:10;;;;;;;4.57;2.05;;;17.10;99.90;;;;;;6522374;22;20016;-85
2024/04/13 19:13:36;;;;;;;7.88;1.60;;;17.10;99.90;;;;;;6523777;22;20001;-85
2024/04/13 19:16:02;;;;;;;4.82;1.27;;;17.20;99.90;;;;;;6522794;22;20001;-86
2024/04/13 19:18:29;;;;;;;4.13;1.20;;;17.00;99.90;;;;;;6478361;22;20016;-85
2024/04/13 19:20:55;;;;;;;5.82;1.73;;;17.50;99.90;;;;;;6522732;22;20076;-86
2024/04/13 19:23:22;;;;;;;6.20;1.10;;;17.20;99.90;;;;;;6521643;22;20052;-85
2024/04/13 19:26:01;;;;;;;4.55;1.08;;;16.80;99.90;;;;;;6476484;22;20005;-85
2024/04/13 19:28:27;;;;;;;5.32;1.27;;;16.80;99.90;;;;;;6522280;22;20005;-85
2024/04/13 19:30:53;;;;;;;4.45;1.63;;;16.70;99.90;;;;;;6521287;22;20432;-84
2024/04/13 19:33:20;;;;;;;3.85;1.35;;;17.20;99.90;;;;;;6520589;22;20001;-85
2024/04/13 19:35:45;;;;;;;3.03;0.98;;;16.80;99.90;;;;;;6520713;22;20071;-84
2024/04/13 19:38:11;;;;;;;3.55;1.73;;;17.00;99.90;;;;;;6522041;22;20015;-84
2024/04/13 19:40:37;;;;;;;4.10;1.17;;;16.50;99.90;;;;;;6522492;22;20055;-85
2024/04/13 19:43:03;;;;;;;2.88;1.10;;;17.00;99.90;;;;;;6522989;22;20305;-85
2024/04/13 19:45:29;;;;;;;7.05;1.13;;;16.50;99.90;;;;;;6522189;22;20034;-83
2024/04/13 19:47:55;;;;;;;4.05;1.05;;;16.20;99.90;;;;;;6523673;22;20005;-85
2024/04/13 19:50:21;;;;;;;3.88;0.80;;;17.20;99.90;;;;;;6522186;22;20013;-84
2024/04/13 19:52:47;;;;;;;3.55;0.70;;;16.40;99.90;;;;;;6478659;22;20005;-86
2024/04/13 19:55:13;;;;;;;2.08;0.80;;;16.90;99.90;;;;;;6523166;22;20005;-84
2024/04/13 19:57:38;;;;;;;2.17;0.82;;;16.50;99.90;;;;;;6522179;22;20005;-84
2024/04/13 20:00:05;;;;;;;1.30;0.47;;;16.40;99.90;;;;;;6522160;22;20076;-84
2024/04/13 20:02:31;;;;;;;2.33;0.52;;;16.40;99.90;;;;;;6477144;22;20016;-85
2024/04/13 20:04:57;;;;;;;2.55;0.50;;;16.40;99.90;;;;;;6520737;22;20015;-85
2024/04/13 20:07:24;;;;;;;1.38;0.55;;;16.90;99.90;;;;;;6521362;22;20001;-86
2024/04/13 20:09:50;;;;;;;4.35;0.88;;;16.40;99.90;;;;;;6479678;22;20317;-84
2024/04/13 20:12:17;;;;;;;2.08;0.60;;;16.30;99.90;;;;;;6523543;22;20719;-85
2024/04/13 20:20:15;;;;;;;1.85;0.52;;;16.50;99.90;;;;;;6521506;22;20092;-86
2024/04/13 20:22:41;;;;;;;4.68;0.68;;;16.40;99.90;;;;;;6522293;22;20008;-84
2024/04/13 20:25:07;;;;;;;1.83;0.52;;;16.50;99.90;;;;;;6523626;22;20009;-84
2024/04/13 20:27:32;;;;;;;2.78;0.43;;;16.60;99.90;;;;;;6522577;22;20005;-84
2024/04/13 20:29:58;;;;;;;2.80;0.50;;;16.20;99.90;;;;;;6521377;22;20005;-85
2024/04/13 20:32:24;;;;;;;1.55;0.35;;;16.20;99.90;;;;;;6477228;22;20005;-85
2024/04/13 20:34:52;;;;;;;2.33;0.85;;;16.30;99.90;;;;;;6521262;22;20013;-86
2024/04/13 20:37:18;;;;;;;4.78;0.55;;;16.10;99.90;;;;;;6479834;22;20005;-86
2024/04/13 20:39:43;;;;;;;3.45;1.13;;;16.80;99.90;;;;;;6521898;22;20598;-84
2024/04/13 20:42:10;;;;;;;3.55;0.63;;;16.30;99.90;;;;;;6521923;22;20619;-84
2024/04/13 20:44:35;;;;;;;2.50;0.50;;;16.00;99.90;;;;;;6522539;22;20320;-85
2024/04/13 20:47:01;;;;;;;2.08;0.60;;;16.00;99.90;;;;;;6474607;22;20001;-85
2024/04/13 20:49:27;;;;;;;7.10;0.93;;;16.60;99.90;;;;;;6476568;22;20005;-85
2024/04/13 20:51:53;;;;;;;4.88;1.00;;;15.90;99.90;;;;;;6521082;22;20009;-84
2024/04/13 20:54:19;;;;;;;2.22;0.52;;;16.20;99.90;;;;;;6475436;22;20017;-85
2024/04/13 20:56:45;;;;;;;3.75;0.77;;;15.90;99.90;;;;;;6477245;22;20072;-85
2024/04/13 20:59:10;;;;;;;3.00;0.70;;;15.90;99.90;;;;;;6522877;22;20012;-87
2024/04/13 21:01:36;;;;;;;2.20;1.13;;;15.70;99.90;;;;;;6523301;22;20005;-84
2024/04/13 21:04:02;;;;;;;3.65;0.65;;;16.00;99.90;;;;;;6522265;22;20427;-84
2024/04/13 21:06:28;;;;;;;2.15;0.80;;;15.70;99.90;;;;;;6522767;22;20005;-85
2024/04/13 21:08:54;;;;;;;2.35;0.75;;;15.60;99.90;;;;;;6521855;22;20130;-85
2024/04/13 21:11:19;;;;;;;1.45;0.50;;;15.50;99.90;;;;;;6522620;22;20025;-84
2024/04/13 21:13:45;;;;;;;5.28;0.98;;;15.70;99.90;;;;;;6523151;22;20012;-85
2024/04/13 21:16:11;;;;;;;5.07;0.80;;;15.50;99.90;;;;;;6477458;22;20012;-84
2024/04/13 21:18:36;;;;;;;3.28;0.75;;;15.80;99.90;;;;;;6522957;22;20005;-84
2024/04/13 21:21:03;;;;;;;4.63;1.17;;;15.50;99.90;;;;;;6477190;22;20001;-84
2024/04/13 21:23:28;;;;;;;3.20;0.90;;;15.30;99.90;;;;;;6479112;22;20012;-84
2024/04/13 21:25:54;;;;;;;4.43;1.02;;;15.30;99.90;;;;;;6523070;22;19997;-85
2024/04/13 21:28:20;;;;;;;5.32;1.20;;;15.80;99.90;;;;;;6479253;22;20455;-85
2024/04/13 21:30:45;;;;;;;2.85;0.90;;;15.50;99.90;;;;;;6524064;22;20001;-85
2024/04/13 21:33:11;;;;;;;7.53;1.67;;;15.30;99.90;;;;;;6523622;22;20156;-85
2024/04/13 21:35:37;;;;;;;5.72;1.42;;;15.20;99.90;;;;;;6523856;22;20017;-85
2024/04/13 21:38:02;;;;;;;7.05;1.33;;;15.20;99.90;;;;;;6524203;22;20309;-85
2024/04/13 21:40:28;;;;;;;3.30;1.13;;;15.10;99.90;;;;;;6478160;22;20005;-85
2024/04/13 21:42:54;;;;;;;3.22;0.85;;;15.50;99.90;;;;;;6523948;22;20005;-85
2024/04/13 21:45:19;;;;;;;5.07;1.25;;;15.50;99.90;;;;;;6524485;22;20005;-85
2024/04/13 21:47:45;;;;;;;4.90;1.20;;;15.60;99.90;;;;;;6478880;22;20071;-85
2024/04/13 21:50:11;;;;;;;8.70;1.85;;;15.10;99.90;;;;;;6478456;22;20052;-85
2024/04/13 21:52:37;;;;;;;4.22;1.17;;;15.60;99.90;;;;;;6478396;22;20444;-84
2024/04/13 21:55:04;;;;;;;5.63;1.52;;;15.10;99.90;;;;;;6522400;22;20001;-85
2024/04/13 21:57:30;;;;;;;4.40;1.42;;;14.90;99.90;;;;;;6522953;22;20083;-85
2024/04/13 21:59:55;;;;;;;4.95;1.42;;;15.30;99.90;;;;;;6478193;22;20013;-85
2024/04/13 22:02:21;;;;;;;5.60;1.33;;;15.00;99.90;;;;;;6523251;22;20382;-85
2024/04/13 22:04:47;;;;;;;9.85;1.88;;;14.80;99.90;;;;;;6524127;22;20033;-86
2024/04/13 22:07:12;;;;;;;4.63;1.30;;;14.90;99.90;;;;;;6523328;22;20001;-85
2024/04/13 22:09:38;;;;;;;5.32;1.52;;;14.80;99.90;;;;;;6523972;22;20142;-85
2024/04/13 22:12:05;;;;;;;8.70;1.85;;;14.70;99.90;;;;;;6524064;22;20005;-86
2024/04/13 22:14:30;;;;;;;9.65;2.25;;;14.70;99.90;;;;;;6524315;22;20001;-85
2024/04/13 22:16:56;;;;;;;6.22;1.60;;;15.30;99.90;;;;;;6524102;22;20016;-85
2024/04/13 22:19:22;;;;;;;7.65;1.80;;;14.70;99.90;;;;;;6523768;22;20002;-85
2024/04/13 22:21:49;;;;;;;7.47;1.58;;;14.70;99.90;;;;;;6524348;22;20079;-85
2024/04/13 22:24:16;;;;;;;5.55;1.50;;;14.90;99.90;;;;;;6524268;22;20005;-85
2024/04/13 22:26:41;;;;;;;8.93;1.95;;;15.00;99.90;;;;;;6478959;22;20018;-85
2024/04/13 22:29:07;;;;;;;8.73;1.95;;;14.50;99.90;;;;;;6523621;22;20778;-85
2024/04/13 22:31:39;;;;;;;10.70;2.58;;;15.20;99.90;;;;;;6522765;22;20005;-85
2024/04/13 22:34:24;;;;;;;9.75;2.38;;;14.90;99.90;;;;;;6485681;22;20009;-85
2024/04/13 22:37:11;;;;;;;;;;;14.70;99.90;;;;;;6485322;22;19997;-85
2024/04/13 22:39:36;;;;;;;;;;;14.60;99.90;;;;;;6524301;22;19992;-85
2024/04/13 22:42:02;;;;;;;10.32;2.05;;;14.60;99.90;;;;;;6524481;22;19934;-86
2024/04/13 22:44:29;;;;;;;9.68;3.00;;;14.60;99.90;;;;;;6524290;22;20080;-85
2024/04/13 22:46:55;;;;;;;6.72;2.55;;;14.50;99.90;;;;;;6522714;22;20029;-85
2024/04/13 22:49:20;;;;;;;11.23;2.38;;;14.80;99.90;;;;;;6521268;22;20079;-86
2024/04/13 23:07:07;;;;;;;9.25;1.95;;;14.40;99.90;;;;;;6274540;22;20012;-85
2024/04/13 23:11:14;;;;;;;9.80;2.60;;;14.30;99.90;;;;;;5867093;24;20022;-86
2024/04/13 23:33:31;;;;;;;12.38;3.00;;;14.30;99.90;;;;;;5824983;24;20012;-85
2024/04/13 23:48:46;;;;;;;9.95;2.78;;;14.30;99.90;;;;;;5744525;25;20011;-85
2024/04/13 23:52:10;;;;;;;11.88;3.33;;;14.40;99.90;;;;;;5898972;24;20006;-85
2024/04/13 23:55:51;;;;;;;8.70;2.40;;;14.30;99.90;;;;;;5911534;24;20034;-87
